Time;durP1;ratioP1;P1;durP2;ratioP2;P2;SDS_P1;SDS_P2;PMS_P1;PMS_P2;Temp;Humidity;BMP_temperature;BMP_pressure;BME280_temperature;BME280_humidity;BME280_pressure;Samples;Min_cycle;Max_cycle;Signal;HPM_P1;HPM_P2
2022/02/24 00:00:49;;;;;;;9.65;2.75;;;15.40;61.50;;;;;;4159323;28;20045;-62
2022/02/24 00:03:12;;;;;;;7.70;2.30;;;15.40;61.50;;;;;;4160728;28;20060;-62
2022/02/24 00:05:36;;;;;;;9.80;2.63;;;15.40;62.30;;;;;;4161004;28;20137;-62
2022/02/24 00:07:59;;;;;;;9.13;2.75;;;15.40;63.30;;;;;;4159419;28;20053;-62
2022/02/24 00:10:21;;;;;;;12.65;2.97;;;15.40;63.70;;;;;;4160210;28;20061;-63
2022/02/24 00:12:44;;;;;;;12.05;2.50;;;15.50;63.60;;;;;;4144441;28;20132;-62
2022/02/24 00:15:07;;;;;;;8.65;2.28;;;15.60;63.50;;;;;;4144291;28;20065;-62
2022/02/24 00:17:29;;;;;;;6.45;2.03;;;15.60;63.30;;;;;;4148039;28;20053;-61
2022/02/24 00:19:51;;;;;;;8.60;2.50;;;15.60;63.00;;;;;;4160794;28;20046;-61
2022/02/24 00:22:15;;;;;;;14.00;3.20;;;15.60;62.70;;;;;;4159189;28;20059;-61
2022/02/24 00:24:37;;;;;;;9.43;2.53;;;15.60;63.10;;;;;;4160233;28;20114;-61
2022/02/24 00:27:01;;;;;;;9.93;2.42;;;15.70;64.10;;;;;;4160121;28;20060;-61
2022/02/24 00:29:23;;;;;;;11.27;2.80;;;15.60;63.10;;;;;;4159506;28;20053;-61
2022/02/24 00:31:46;;;;;;;15.27;3.97;;;15.70;63.20;;;;;;4159920;28;20136;-61
2022/02/24 00:34:08;;;;;;;8.57;2.90;;;15.70;63.00;;;;;;4160366;28;20049;-61
2022/02/24 00:36:30;;;;;;;11.27;3.03;;;15.70;62.80;;;;;;4159030;28;20048;-61
2022/02/24 00:38:53;;;;;;;8.55;3.20;;;15.60;62.70;;;;;;4159926;28;20063;-61
2022/02/24 00:41:15;;;;;;;9.27;3.00;;;15.70;62.90;;;;;;4160278;28;20049;-61
2022/02/24 00:43:37;;;;;;;12.90;2.92;;;15.60;63.00;;;;;;4160287;28;20056;-61
2022/02/24 00:45:59;;;;;;;8.50;2.63;;;15.70;64.00;;;;;;4160214;28;20140;-62
2022/02/24 00:48:21;;;;;;;6.32;1.95;;;15.70;63.30;;;;;;4159527;28;20049;-61
2022/02/24 00:50:44;;;;;;;8.13;2.08;;;15.70;64.00;;;;;;4160114;28;20056;-61
2022/02/24 00:53:08;;;;;;;5.90;1.63;;;15.80;63.00;;;;;;4159521;28;20077;-60
2022/02/24 00:55:33;;;;;;;8.48;2.25;;;15.80;62.70;;;;;;4160100;28;20054;-61
2022/02/24 00:57:55;;;;;;;9.35;2.78;;;15.80;62.40;;;;;;4159788;28;20049;-60
2022/02/24 01:00:17;;;;;;;11.25;2.67;;;15.90;62.10;;;;;;4160237;28;20923;-60
2022/02/24 01:02:39;;;;;;;10.82;2.10;;;15.90;62.00;;;;;;4159971;28;20045;-61
2022/02/24 01:05:01;;;;;;;7.90;2.67;;;15.90;62.20;;;;;;4160055;28;20462;-61
2022/02/24 01:07:23;;;;;;;9.00;2.47;;;15.90;62.10;;;;;;4159644;28;20057;-61
2022/02/24 01:09:46;;;;;;;9.35;2.45;;;15.90;62.20;;;;;;4159924;28;20049;-61
2022/02/24 01:12:10;;;;;;;6.85;2.40;;;15.90;62.00;;;;;;4159986;28;20398;-61
2022/02/24 01:14:32;;;;;;;10.82;2.78;;;15.80;62.10;;;;;;4159868;28;20052;-61
2022/02/24 01:16:54;;;;;;;6.20;2.28;;;15.80;61.90;;;;;;4159777;28;20060;-62
2022/02/24 01:19:16;;;;;;;7.82;1.92;;;15.80;62.10;;;;;;4143514;28;20493;-62
2022/02/24 01:21:38;;;;;;;8.40;2.05;;;15.80;62.20;;;;;;4143360;28;20140;-61
2022/02/24 01:24:00;;;;;;;6.35;2.67;;;15.70;62.20;;;;;;4158826;28;20060;-61
2022/02/24 01:26:24;;;;;;;10.57;2.55;;;15.70;62.20;;;;;;4174460;28;20080;-61
2022/02/24 01:28:47;;;;;;;8.60;2.40;;;15.80;62.10;;;;;;4175664;28;20052;-61
2022/02/24 01:31:09;;;;;;;11.63;2.83;;;15.80;62.10;;;;;;4175942;28;20049;-61
2022/02/24 01:33:32;;;;;;;8.25;2.35;;;15.80;62.20;;;;;;4176298;28;20400;-61
2022/02/24 01:35:54;;;;;;;6.68;2.17;;;15.80;62.20;;;;;;4176027;28;20048;-61
2022/02/24 01:38:16;;;;;;;10.43;2.85;;;15.80;62.10;;;;;;4175904;28;20059;-61
2022/02/24 01:40:38;;;;;;;12.00;2.70;;;15.70;62.20;;;;;;4175852;28;20497;-60
2022/02/24 01:43:00;;;;;;;7.88;3.08;;;15.70;62.30;;;;;;4175826;28;20055;-60
2022/02/24 01:45:24;;;;;;;7.75;2.17;;;15.70;62.50;;;;;;4176254;28;20099;-61
2022/02/24 01:47:46;;;;;;;12.18;3.15;;;15.70;62.60;;;;;;4175491;28;20060;-61
2022/02/24 01:50:10;;;;;;;6.18;2.20;;;15.80;62.10;;;;;;4176054;28;20086;-61
2022/02/24 01:52:32;;;;;;;9.35;2.83;;;15.80;62.30;;;;;;4174509;28;20051;-61
2022/02/24 01:54:55;;;;;;;11.30;2.28;;;15.80;61.90;;;;;;4175851;28;20496;-61
2022/02/24 01:57:17;;;;;;;6.85;2.28;;;15.80;61.90;;;;;;4175601;28;20131;-62
2022/02/24 01:59:39;;;;;;;7.45;2.25;;;15.90;61.80;;;;;;4175462;28;20049;-62
2022/02/24 02:02:03;;;;;;;3.92;1.77;;;15.90;61.80;;;;;;4175439;28;20059;-62
2022/02/24 02:04:27;;;;;;;8.05;1.88;;;15.90;61.60;;;;;;4175495;28;20489;-61
2022/02/24 02:06:50;;;;;;;7.88;2.25;;;15.90;61.80;;;;;;4175546;28;20053;-62
2022/02/24 02:09:12;;;;;;;9.23;2.15;;;15.90;61.80;;;;;;4176295;28;20083;-61
2022/02/24 02:11:34;;;;;;;10.88;2.38;;;15.90;62.80;;;;;;4178842;28;20052;-62
2022/02/24 02:13:57;;;;;;;9.00;2.00;;;15.90;61.90;;;;;;4179248;28;20045;-62
2022/02/24 02:16:19;;;;;;;11.57;2.88;;;15.90;61.80;;;;;;4178909;28;20064;-62
2022/02/24 02:18:43;;;;;;;8.30;2.25;;;15.90;61.70;;;;;;4178892;28;20056;-61
2022/02/24 02:21:07;;;;;;;7.40;2.10;;;15.90;61.60;;;;;;4177833;28;20130;-60
2022/02/24 02:23:31;;;;;;;7.45;2.20;;;15.90;61.80;;;;;;4178262;28;20535;-60
2022/02/24 02:25:53;;;;;;;4.85;1.70;;;15.90;62.00;;;;;;4178658;28;20099;-60
2022/02/24 02:28:16;;;;;;;10.55;2.15;;;15.90;61.90;;;;;;4178762;28;20052;-60
2022/02/24 02:30:38;;;;;;;9.82;1.60;;;15.90;61.90;;;;;;4179093;28;20049;-60
2022/02/24 02:33:00;;;;;;;7.40;2.17;;;15.90;62.80;;;;;;4178940;28;20155;-60
2022/02/24 02:35:22;;;;;;;7.47;2.10;;;16.00;62.00;;;;;;4178839;28;20045;-61
2022/02/24 02:37:46;;;;;;;6.63;1.83;;;16.00;61.60;;;;;;4178528;28;20493;-61
2022/02/24 02:40:09;;;;;;;8.63;2.20;;;16.10;61.20;;;;;;4178162;28;20358;-60
2022/02/24 02:42:32;;;;;;;5.90;1.95;;;16.20;60.90;;;;;;4178373;28;20053;-61
2022/02/24 02:44:54;;;;;;;7.35;2.15;;;16.30;60.70;;;;;;4178759;28;20048;-61
2022/02/24 02:47:16;;;;;;;6.43;2.10;;;16.30;60.50;;;;;;4178255;28;20106;-61
2022/02/24 02:49:39;;;;;;;10.65;2.45;;;16.30;60.30;;;;;;4178454;28;20053;-61
2022/02/24 02:52:01;;;;;;;6.22;1.80;;;16.30;60.30;;;;;;4178717;28;20052;-61
2022/02/24 02:54:25;;;;;;;10.00;2.03;;;16.30;60.20;;;;;;4178141;28;20052;-61
2022/02/24 02:56:48;;;;;;;11.63;2.55;;;16.30;60.30;;;;;;4178158;28;20103;-61
2022/02/24 02:59:10;;;;;;;6.88;2.47;;;16.30;60.20;;;;;;4178012;28;20063;-61
2022/02/24 03:01:32;;;;;;;6.05;1.85;;;16.30;60.40;;;;;;4178322;28;20052;-61
2022/02/24 03:03:55;;;;;;;7.43;2.05;;;16.30;60.50;;;;;;4178095;28;20056;-61
2022/02/24 03:06:17;;;;;;;7.30;1.80;;;16.20;60.60;;;;;;4161865;28;20166;-60
2022/02/24 03:08:40;;;;;;;7.13;1.65;;;16.20;60.60;;;;;;4153376;28;20864;-61
2022/02/24 03:11:03;;;;;;;7.85;2.00;;;16.10;60.70;;;;;;4161544;28;20045;-61
2022/02/24 03:13:26;;;;;;;12.93;3.38;;;16.10;60.90;;;;;;4161847;28;20103;-61
2022/02/24 03:15:50;;;;;;;9.18;2.22;;;16.10;61.00;;;;;;4161561;28;20046;-60
2022/02/24 03:18:12;;;;;;;11.68;2.17;;;16.10;61.00;;;;;;4160907;28;20054;-61
2022/02/24 03:20:35;;;;;;;4.65;1.60;;;16.10;60.90;;;;;;4160257;28;20053;-61
2022/02/24 03:22:57;;;;;;;7.30;2.13;;;16.20;60.60;;;;;;4161285;28;20489;-61
2022/02/24 03:25:19;;;;;;;6.53;2.38;;;16.20;61.40;;;;;;4161016;28;20068;-60
2022/02/24 03:27:42;;;;;;;7.63;2.45;;;16.30;60.30;;;;;;4160940;28;20060;-60
2022/02/24 03:30:06;;;;;;;12.30;1.98;;;16.30;60.20;;;;;;4161542;28;20064;-60
2022/02/24 03:32:28;;;;;;;8.45;2.35;;;16.30;60.30;;;;;;4161883;28;22178;-60
2022/02/24 03:34:50;;;;;;;9.40;1.90;;;16.30;60.30;;;;;;4161457;28;20057;-60
2022/02/24 03:37:13;;;;;;;6.70;2.45;;;16.30;60.30;;;;;;4161015;28;20099;-60
2022/02/24 03:39:35;;;;;;;8.32;1.67;;;16.30;60.50;;;;;;4160916;28;20476;-60
2022/02/24 03:41:57;;;;;;;8.77;2.35;;;16.20;60.50;;;;;;4160273;28;20197;-60
2022/02/24 03:44:21;;;;;;;6.55;2.10;;;16.20;60.50;;;;;;4161064;28;20049;-61
2022/02/24 03:46:43;;;;;;;10.82;1.83;;;16.20;60.20;;;;;;4160812;28;20057;-61
2022/02/24 03:49:06;;;;;;;10.63;1.88;;;16.20;60.30;;;;;;4160765;28;20053;-61
2022/02/24 03:51:28;;;;;;;6.63;1.60;;;16.20;60.20;;;;;;4161052;28;20136;-60
2022/02/24 03:53:50;;;;;;;7.18;1.88;;;16.20;60.40;;;;;;4161058;28;20041;-61
2022/02/24 03:56:13;;;;;;;8.70;2.20;;;16.20;60.50;;;;;;4160699;28;20045;-60
2022/02/24 03:58:35;;;;;;;8.80;2.25;;;16.20;60.30;;;;;;4161062;28;20055;-61
2022/02/24 04:00:58;;;;;;;6.30;2.00;;;16.10;60.30;;;;;;4161145;28;20513;-61
2022/02/24 04:03:24;;;;;;;8.15;2.00;;;16.10;60.40;;;;;;4160406;28;20099;-61
2022/02/24 04:05:47;;;;;;;7.68;2.25;;;16.10;60.60;;;;;;4160493;28;20057;-60
2022/02/24 04:08:09;;;;;;;8.32;2.17;;;16.10;60.60;;;;;;4160714;28;20385;-61
2022/02/24 04:10:31;;;;;;;7.05;2.13;;;16.20;60.80;;;;;;4160233;28;20057;-61
2022/02/24 04:12:53;;;;;;;8.32;2.33;;;16.30;60.50;;;;;;4161199;28;20056;-60
2022/02/24 04:15:15;;;;;;;10.18;2.35;;;16.40;60.20;;;;;;4160495;28;20500;-61
2022/02/24 04:17:39;;;;;;;13.48;2.67;;;16.40;59.90;;;;;;4160668;28;20049;-62
2022/02/24 04:20:01;;;;;;;9.43;2.38;;;16.40;59.70;;;;;;4160629;28;20397;-61
2022/02/24 04:22:23;;;;;;;11.45;2.58;;;16.50;59.70;;;;;;4160389;28;20053;-61
2022/02/24 04:24:46;;;;;;;6.97;2.15;;;16.40;59.50;;;;;;4160446;28;20519;-61
2022/02/24 04:27:08;;;;;;;8.93;2.55;;;16.40;59.60;;;;;;4160368;28;20057;-61
2022/02/24 04:29:31;;;;;;;10.05;2.30;;;16.40;59.70;;;;;;4160058;28;20080;-61
2022/02/24 04:31:53;;;;;;;7.53;2.03;;;16.40;59.70;;;;;;4160134;28;20049;-60
2022/02/24 04:34:16;;;;;;;9.10;1.73;;;16.40;59.70;;;;;;4160177;28;20148;-61
2022/02/24 04:36:38;;;;;;;9.18;2.47;;;16.40;59.70;;;;;;4159763;28;20131;-61
2022/02/24 04:39:00;;;;;;;7.00;2.20;;;16.40;59.60;;;;;;4159789;28;20053;-61
2022/02/24 04:41:23;;;;;;;5.53;2.03;;;16.40;59.80;;;;;;4160420;28;20049;-60
2022/02/24 04:43:45;;;;;;;5.93;2.10;;;16.30;59.80;;;;;;4160239;28;20057;-60
2022/02/24 04:46:08;;;;;;;6.75;1.98;;;16.30;59.90;;;;;;4159903;28;20092;-61
2022/02/24 04:48:31;;;;;;;4.68;1.50;;;16.30;60.80;;;;;;4160214;28;20124;-61
2022/02/24 04:50:54;;;;;;;8.23;1.85;;;16.40;59.70;;;;;;4158661;28;20497;-61
2022/02/24 04:53:16;;;;;;;8.30;1.83;;;16.40;59.70;;;;;;4160022;28;20057;-60
2022/02/24 04:55:39;;;;;;;12.63;2.53;;;16.40;59.70;;;;;;4159987;28;20051;-61
2022/02/24 04:58:01;;;;;;;7.70;2.35;;;16.30;59.50;;;;;;4160334;28;20995;-61
2022/02/24 05:00:23;;;;;;;9.55;2.92;;;16.30;59.80;;;;;;4160393;28;20045;-61
2022/02/24 05:02:45;;;;;;;9.35;2.65;;;16.30;59.90;;;;;;4160029;28;20053;-60
2022/02/24 05:05:08;;;;;;;9.90;2.17;;;16.30;59.80;;;;;;4159805;28;20057;-61
2022/02/24 05:07:31;;;;;;;9.90;2.47;;;16.30;59.70;;;;;;4149222;28;20476;-61
2022/02/24 05:09:53;;;;;;;11.50;2.78;;;16.40;59.50;;;;;;4160005;28;20045;-62
2022/02/24 05:12:15;;;;;;;11.35;2.55;;;16.50;59.30;;;;;;4160178;28;20470;-62
2022/02/24 05:14:38;;;;;;;7.05;2.20;;;16.50;59.30;;;;;;4160028;28;20059;-62
2022/02/24 05:17:00;;;;;;;9.40;2.03;;;16.50;59.10;;;;;;4159580;28;20480;-62
2022/02/24 05:19:22;;;;;;;8.38;2.00;;;16.40;59.20;;;;;;4159907;28;20527;-62
2022/02/24 05:21:44;;;;;;;10.88;2.67;;;16.40;59.40;;;;;;4159799;28;20049;-62
2022/02/24 05:24:07;;;;;;;11.68;3.17;;;16.40;59.40;;;;;;4159396;28;20180;-62
2022/02/24 05:26:29;;;;;;;6.45;2.33;;;16.40;59.40;;;;;;4157684;28;20109;-62
2022/02/24 05:28:52;;;;;;;9.63;2.53;;;16.40;59.40;;;;;;4159821;28;20128;-62
2022/02/24 05:31:14;;;;;;;6.30;1.95;;;16.40;59.40;;;;;;4157904;28;20132;-62
2022/02/24 05:33:37;;;;;;;7.65;2.85;;;16.40;59.40;;;;;;4158768;28;20043;-62
2022/02/24 05:35:59;;;;;;;8.25;2.35;;;16.30;59.50;;;;;;4157760;28;20517;-61
2022/02/24 05:38:22;;;;;;;6.30;2.20;;;16.30;59.50;;;;;;4159507;28;20060;-62
2022/02/24 05:40:45;;;;;;;11.45;2.60;;;16.30;59.50;;;;;;4159211;28;20069;-62
2022/02/24 05:43:07;;;;;;;9.10;2.25;;;16.30;60.20;;;;;;4157792;28;20053;-61
2022/02/24 05:45:29;;;;;;;7.82;2.33;;;16.40;59.80;;;;;;4159428;28;20107;-61
2022/02/24 05:47:51;;;;;;;7.68;2.00;;;16.40;59.40;;;;;;4159270;28;20536;-61
2022/02/24 05:50:13;;;;;;;8.40;2.03;;;16.40;59.30;;;;;;4159004;28;20096;-62
2022/02/24 05:52:36;;;;;;;8.23;2.15;;;16.50;59.20;;;;;;4158949;28;20073;-63
2022/02/24 05:54:58;;;;;;;10.32;2.60;;;16.50;59.10;;;;;;4158925;28;20060;-62
2022/02/24 05:57:22;;;;;;;6.95;2.55;;;16.50;59.00;;;;;;4143045;28;20112;-61
2022/02/24 05:59:44;;;;;;;6.97;2.15;;;16.60;59.00;;;;;;4143321;28;20136;-61
2022/02/24 06:02:06;;;;;;;6.50;1.90;;;16.50;59.80;;;;;;4143079;28;20104;-60
2022/02/24 06:04:29;;;;;;;6.80;2.58;;;16.50;59.10;;;;;;4143084;28;20566;-61
2022/02/24 06:06:51;;;;;;;8.63;2.70;;;16.50;59.10;;;;;;4158345;28;20075;-61
2022/02/24 06:09:13;;;;;;;8.93;2.92;;;16.50;59.20;;;;;;4159428;28;20057;-60
2022/02/24 06:11:35;;;;;;;6.20;2.38;;;16.50;59.00;;;;;;4159592;28;20176;-61
2022/02/24 06:13:59;;;;;;;10.15;2.42;;;16.50;59.10;;;;;;4159093;28;20041;-61
2022/02/24 06:16:21;;;;;;;5.85;2.47;;;16.50;59.30;;;;;;4159249;28;20096;-60
2022/02/24 06:18:43;;;;;;;7.93;2.33;;;16.50;59.40;;;;;;4159009;28;20054;-61
2022/02/24 06:21:05;;;;;;;10.30;2.72;;;16.50;59.30;;;;;;4159422;28;20111;-61
2022/02/24 06:23:28;;;;;;;11.57;2.72;;;16.50;59.80;;;;;;4158912;28;20049;-60
2022/02/24 06:25:50;;;;;;;8.25;2.17;;;16.50;59.20;;;;;;4158472;28;20049;-60
2022/02/24 06:28:12;;;;;;;6.10;2.20;;;16.50;59.20;;;;;;4159425;28;20057;-60
2022/02/24 06:30:35;;;;;;;11.85;2.58;;;16.50;59.20;;;;;;4159197;28;20099;-61
2022/02/24 06:32:58;;;;;;;8.48;2.22;;;16.50;60.00;;;;;;4157515;28;20477;-61
2022/02/24 06:35:20;;;;;;;8.35;2.40;;;16.40;59.30;;;;;;4158561;28;20080;-60
2022/02/24 06:37:43;;;;;;;8.80;2.38;;;16.40;59.40;;;;;;4159347;28;20049;-60
2022/02/24 06:40:06;;;;;;;8.95;3.25;;;16.50;60.20;;;;;;4159348;28;20069;-60
2022/02/24 06:42:28;;;;;;;7.95;2.92;;;16.60;59.30;;;;;;4159200;28;20053;-60
2022/02/24 06:44:53;;;;;;;9.73;2.42;;;16.60;59.00;;;;;;4158534;28;20053;-60
2022/02/24 06:47:17;;;;;;;13.80;3.08;;;16.70;58.90;;;;;;4158816;28;20084;-61
2022/02/24 06:49:41;;;;;;;6.22;2.08;;;16.70;58.70;;;;;;4142798;28;20077;-61
2022/02/24 06:52:04;;;;;;;7.03;2.03;;;16.70;58.80;;;;;;4156869;28;20064;-61
2022/02/24 06:54:26;;;;;;;9.43;2.65;;;16.70;58.70;;;;;;4158177;28;20553;-62
2022/02/24 06:56:49;;;;;;;9.52;2.60;;;16.70;58.90;;;;;;4161511;28;20457;-61
2022/02/24 06:59:11;;;;;;;7.90;2.30;;;16.60;59.40;;;;;;4159643;28;20041;-64
2022/02/24 07:01:33;;;;;;;10.38;3.00;;;16.60;58.60;;;;;;4161772;28;20045;-62
2022/02/24 07:03:56;;;;;;;15.05;2.95;;;16.60;59.10;;;;;;4162907;28;20045;-62
2022/02/24 07:06:19;;;;;;;9.40;2.38;;;16.60;59.30;;;;;;4144871;28;20042;-62
2022/02/24 07:08:41;;;;;;;8.52;2.70;;;16.50;59.20;;;;;;4157635;28;20124;-62
2022/02/24 07:11:03;;;;;;;5.78;2.30;;;16.50;59.20;;;;;;4159964;28;20448;-62
2022/02/24 07:13:26;;;;;;;8.18;2.78;;;16.40;59.20;;;;;;4160498;28;20056;-62
2022/02/24 07:16:08;;;;;;;7.63;3.03;;;16.40;59.40;;;;;;4160201;28;20072;-62
2022/02/24 07:18:31;;;;;;;9.10;2.28;;;16.40;59.40;;;;;;4158413;28;20530;-63
2022/02/24 07:20:54;;;;;;;5.72;2.05;;;16.40;59.30;;;;;;4158194;28;20127;-63
2022/02/24 07:23:17;;;;;;;7.10;2.50;;;16.40;59.00;;;;;;4157738;28;20045;-62
2022/02/24 07:25:39;;;;;;;11.45;2.40;;;16.40;59.00;;;;;;4158679;28;20131;-63
2022/02/24 07:28:04;;;;;;;6.68;2.33;;;16.40;58.90;;;;;;4160138;28;20111;-63
2022/02/24 07:30:33;;;;;;;9.00;2.75;;;16.50;58.80;;;;;;4154334;28;20045;-64
2022/02/24 07:32:55;;;;;;;6.10;2.80;;;16.50;58.60;;;;;;4161304;28;20045;-65
2022/02/24 07:35:17;;;;;;;12.77;2.67;;;16.50;58.50;;;;;;4161846;28;20405;-64
2022/02/24 07:37:41;;;;;;;9.13;2.75;;;16.50;58.50;;;;;;4161586;28;20127;-65
2022/02/24 07:40:05;;;;;;;7.25;2.25;;;16.50;58.60;;;;;;4161490;28;20042;-64
2022/02/24 07:42:28;;;;;;;5.47;2.40;;;16.50;58.60;;;;;;4161264;28;20405;-64
2022/02/24 07:44:50;;;;;;;10.82;3.17;;;16.50;58.60;;;;;;4161499;28;20512;-64
2022/02/24 07:47:13;;;;;;;8.38;2.95;;;16.50;58.60;;;;;;4161353;28;20384;-64
2022/02/24 07:49:36;;;;;;;6.75;2.65;;;16.50;58.60;;;;;;4160684;28;20554;-65
2022/02/24 07:51:58;;;;;;;9.00;3.33;;;16.40;58.60;;;;;;4161185;28;20473;-64
2022/02/24 07:54:22;;;;;;;7.78;2.75;;;16.40;58.60;;;;;;4160923;28;20053;-64
2022/02/24 07:56:44;;;;;;;6.90;2.72;;;16.40;58.80;;;;;;4159769;28;20391;-64
2022/02/24 07:59:08;;;;;;;9.43;2.65;;;16.30;58.90;;;;;;4161018;28;20052;-65
2022/02/24 08:01:31;;;;;;;9.20;2.70;;;16.30;59.00;;;;;;4160339;28;20418;-65
2022/02/24 08:03:53;;;;;;;13.95;3.60;;;16.20;59.00;;;;;;4159813;28;20049;-64
2022/02/24 08:06:16;;;;;;;8.60;2.92;;;16.20;59.10;;;;;;4160531;28;20045;-64
2022/02/24 08:08:38;;;;;;;10.90;2.90;;;16.20;59.10;;;;;;4158403;28;20498;-65
2022/02/24 08:11:01;;;;;;;7.97;2.67;;;16.20;59.10;;;;;;4152743;28;20053;-65
2022/02/24 08:13:23;;;;;;;12.27;2.92;;;16.10;59.10;;;;;;4159672;28;20061;-65
2022/02/24 08:15:45;;;;;;;12.38;2.67;;;16.10;59.40;;;;;;4158556;28;20547;-65
2022/02/24 08:18:08;;;;;;;9.63;3.42;;;16.20;59.30;;;;;;4160972;28;20045;-65
2022/02/24 08:20:30;;;;;;;5.88;2.88;;;16.30;59.10;;;;;;4158594;28;20057;-65
2022/02/24 08:22:53;;;;;;;6.35;3.00;;;16.40;58.80;;;;;;4159979;28;20096;-65
2022/02/24 08:25:19;;;;;;;6.90;2.40;;;16.60;58.40;;;;;;4159471;28;20049;-65
2022/02/24 08:27:44;;;;;;;8.88;2.85;;;16.60;58.20;;;;;;4159524;28;20484;-65
2022/02/24 08:30:09;;;;;;;8.95;2.55;;;16.70;58.10;;;;;;4160382;28;20053;-64
2022/02/24 08:32:31;;;;;;;6.82;2.80;;;16.70;58.00;;;;;;4159380;28;20103;-65
2022/02/24 08:34:55;;;;;;;9.23;2.78;;;16.80;58.00;;;;;;4160393;28;20053;-64
2022/02/24 08:37:17;;;;;;;11.43;3.30;;;16.80;57.90;;;;;;4159898;28;20049;-65
2022/02/24 08:39:39;;;;;;;10.20;2.80;;;16.70;57.90;;;;;;4160193;28;20524;-65
2022/02/24 08:42:01;;;;;;;9.65;2.42;;;16.70;58.00;;;;;;4159958;28;20555;-65
2022/02/24 08:44:25;;;;;;;6.53;3.10;;;16.70;58.10;;;;;;4159712;28;20141;-64
2022/02/24 08:46:47;;;;;;;9.80;2.28;;;16.60;58.10;;;;;;4147886;28;20745;-65
2022/02/24 08:49:10;;;;;;;5.88;2.35;;;16.50;58.20;;;;;;4160329;28;20045;-63
2022/02/24 08:51:32;;;;;;;7.35;2.42;;;16.50;58.50;;;;;;4168188;28;20049;-65
2022/02/24 08:53:54;;;;;;;9.63;2.85;;;16.50;58.70;;;;;;4166133;28;20038;-65
2022/02/24 08:56:16;;;;;;;9.65;3.30;;;16.40;58.70;;;;;;4163577;28;20056;-66
2022/02/24 08:58:38;;;;;;;13.00;3.25;;;16.40;58.80;;;;;;4163096;28;20488;-65
2022/02/24 09:01:02;;;;;;;10.18;3.45;;;16.40;58.90;;;;;;4161667;28;20202;-66
2022/02/24 09:03:27;;;;;;;11.48;3.30;;;16.30;59.00;;;;;;4167452;28;20471;-68
2022/02/24 09:05:49;;;;;;;8.13;2.40;;;16.30;59.20;;;;;;4172028;28;20053;-67
2022/02/24 09:08:11;;;;;;;6.88;2.70;;;16.40;59.20;;;;;;4165752;28;20061;-67
2022/02/24 09:10:34;;;;;;;9.00;2.85;;;16.50;58.90;;;;;;4147856;28;20122;-67
2022/02/24 09:12:56;;;;;;;7.20;2.38;;;16.60;58.60;;;;;;4149104;28;20111;-65
2022/02/24 09:15:18;;;;;;;7.75;2.88;;;16.70;58.50;;;;;;4152569;28;20404;-64
2022/02/24 09:17:42;;;;;;;12.98;3.17;;;16.70;58.30;;;;;;4148866;28;20042;-65
2022/02/24 09:20:05;;;;;;;6.70;2.45;;;16.70;58.20;;;;;;4150113;28;20064;-65
2022/02/24 09:22:27;;;;;;;7.38;2.53;;;16.70;58.10;;;;;;4149676;28;20053;-65
2022/02/24 09:24:50;;;;;;;10.07;2.97;;;16.60;58.10;;;;;;4149075;28;20389;-64
2022/02/24 09:27:13;;;;;;;9.43;2.50;;;16.70;58.20;;;;;;4148786;28;20057;-64
2022/02/24 09:29:37;;;;;;;11.93;3.10;;;16.70;58.20;;;;;;4164531;28;20556;-66
2022/02/24 09:31:59;;;;;;;12.27;3.45;;;16.60;58.20;;;;;;4162377;28;20057;-67
2022/02/24 09:34:23;;;;;;;7.35;2.85;;;16.60;58.30;;;;;;4164685;28;20480;-66
2022/02/24 09:36:45;;;;;;;10.00;2.80;;;16.50;58.40;;;;;;4150391;28;20132;-66
2022/02/24 09:39:08;;;;;;;8.48;2.65;;;16.60;58.50;;;;;;4150746;28;20148;-67
2022/02/24 09:41:30;;;;;;;6.15;2.53;;;16.60;58.40;;;;;;4149275;28;20049;-67
2022/02/24 09:43:54;;;;;;;9.63;2.67;;;16.60;58.30;;;;;;4134623;28;20050;-66
2022/02/24 09:46:17;;;;;;;11.70;2.88;;;16.60;58.30;;;;;;4151143;28;20107;-67
2022/02/24 09:48:42;;;;;;;9.75;3.10;;;16.60;58.40;;;;;;4149553;28;20067;-66
2022/02/24 09:51:07;;;;;;;9.93;3.15;;;16.60;58.40;;;;;;4149646;28;20048;-65
2022/02/24 09:53:30;;;;;;;11.90;2.83;;;16.50;58.50;;;;;;4146324;28;20050;-65
2022/02/24 09:55:52;;;;;;;10.90;3.03;;;16.50;58.50;;;;;;4146622;28;20060;-65
2022/02/24 09:58:15;;;;;;;6.95;2.83;;;16.50;58.60;;;;;;4147352;28;20060;-66
2022/02/24 10:00:40;;;;;;;9.32;2.72;;;16.50;59.40;;;;;;4151466;28;20046;-65
2022/02/24 10:03:06;;;;;;;7.55;3.08;;;16.60;58.70;;;;;;4148005;28;20100;-66
2022/02/24 10:05:29;;;;;;;12.90;3.42;;;16.60;58.50;;;;;;4151683;28;20048;-66
2022/02/24 10:07:53;;;;;;;14.38;3.03;;;16.70;58.30;;;;;;4149030;28;20057;-66
2022/02/24 10:10:26;;;;;;;13.05;3.03;;;16.80;58.10;;;;;;4146941;28;20053;-66
2022/02/24 10:13:04;;;;;;;9.98;2.60;;;16.80;57.90;;;;;;4163481;28;20060;-67
2022/02/24 10:15:27;;;;;;;12.25;3.58;;;16.90;57.90;;;;;;4160306;28;20049;-66
2022/02/24 10:18:05;;;;;;;10.07;3.55;;;16.90;57.90;;;;;;4161905;28;20057;-67
2022/02/24 10:20:36;;;;;;;6.32;2.75;;;16.80;57.90;;;;;;4164841;28;20057;-67
2022/02/24 10:22:59;;;;;;;9.53;3.03;;;16.80;58.00;;;;;;4168122;28;20045;-67
2022/02/24 10:25:26;;;;;;;11.90;2.50;;;16.70;58.10;;;;;;4162937;28;20315;-67
2022/02/24 10:27:51;;;;;;;10.38;2.53;;;16.60;58.90;;;;;;4163332;28;20140;-66
2022/02/24 10:30:16;;;;;;;7.78;2.30;;;16.60;58.40;;;;;;4168838;28;20075;-67
2022/02/24 10:32:40;;;;;;;8.90;1.98;;;16.50;58.50;;;;;;4169733;28;20049;-68
2022/02/24 10:35:24;;;;;;;8.75;2.40;;;16.50;58.80;;;;;;4176140;28;20171;-67
2022/02/24 10:37:59;;;;;;;8.73;2.00;;;16.50;59.00;;;;;;4162636;28;20164;-67
2022/02/24 10:40:22;;;;;;;7.65;3.50;;;16.40;59.10;;;;;;4166802;28;20071;-66
2022/02/24 10:42:45;;;;;;;6.53;2.65;;;16.50;59.20;;;;;;4169539;28;20053;-66
2022/02/24 10:45:08;;;;;;;8.05;2.33;;;16.40;59.20;;;;;;4169398;28;20053;-67
2022/02/24 10:47:31;;;;;;;4.80;2.22;;;16.40;59.20;;;;;;4164554;28;20400;-66
2022/02/24 10:49:53;;;;;;;7.03;1.77;;;16.40;59.20;;;;;;4168730;28;20454;-67
2022/02/24 10:52:17;;;;;;;9.85;2.45;;;16.40;59.40;;;;;;4166711;28;20056;-66
2022/02/24 10:54:42;;;;;;;7.93;2.45;;;16.40;59.60;;;;;;4163849;28;20081;-67
2022/02/24 10:57:16;;;;;;;9.38;2.17;;;16.40;59.80;;;;;;4167092;28;20056;-66
2022/02/24 10:59:41;;;;;;;6.53;2.00;;;16.40;59.90;;;;;;4166293;28;20092;-66
2022/02/24 11:02:04;;;;;;;6.55;2.10;;;16.40;60.00;;;;;;4162520;28;20058;-67
2022/02/24 11:04:27;;;;;;;7.35;2.08;;;16.50;60.00;;;;;;4170856;28;20059;-66
2022/02/24 11:06:50;;;;;;;5.75;1.98;;;16.50;60.20;;;;;;4170013;28;20049;-67
2022/02/24 11:09:12;;;;;;;9.57;1.85;;;16.50;60.40;;;;;;4166983;28;20137;-67
2022/02/24 11:11:37;;;;;;;5.63;1.98;;;16.50;60.60;;;;;;4164033;28;20440;-67
2022/02/24 11:14:01;;;;;;;6.70;1.70;;;16.50;61.00;;;;;;4165757;28;20069;-66
2022/02/24 11:16:23;;;;;;;6.07;2.08;;;16.50;61.40;;;;;;4169442;28;20069;-66
2022/02/24 11:18:46;;;;;;;7.00;2.10;;;16.40;61.00;;;;;;4163764;28;20162;-66
2022/02/24 11:21:11;;;;;;;4.63;1.65;;;16.40;61.30;;;;;;4167346;28;20123;-65
2022/02/24 11:23:33;;;;;;;4.18;1.52;;;16.40;62.70;;;;;;4168747;28;20480;-65
2022/02/24 11:26:04;;;;;;;5.03;2.13;;;16.40;61.90;;;;;;4167661;28;20493;-65
2022/02/24 11:28:31;;;;;;;5.07;1.83;;;16.30;62.00;;;;;;4166753;28;20147;-64
2022/02/24 11:31:00;;;;;;;7.50;1.80;;;16.30;62.00;;;;;;4167591;28;20164;-65
2022/02/24 11:33:23;;;;;;;8.25;2.03;;;16.30;61.70;;;;;;4168446;28;20068;-65
2022/02/24 11:35:45;;;;;;;5.43;1.95;;;16.20;62.00;;;;;;4169071;28;20508;-65
2022/02/24 11:38:12;;;;;;;6.20;2.20;;;16.20;62.60;;;;;;4166293;28;20632;-65
2022/02/24 11:40:37;;;;;;;7.22;2.13;;;16.20;63.00;;;;;;4169193;28;20137;-66
2022/02/24 11:43:04;;;;;;;10.43;3.40;;;16.20;63.30;;;;;;4163799;28;20055;-66
2022/02/24 11:45:35;;;;;;;4.03;1.80;;;16.10;63.40;;;;;;4164385;28;23020;-67
2022/02/24 11:47:59;;;;;;;6.28;2.20;;;16.10;63.30;;;;;;4167241;28;20088;-67
2022/02/24 11:50:30;;;;;;;5.90;2.05;;;16.10;63.40;;;;;;4168944;28;20051;-66
2022/02/24 11:52:52;;;;;;;6.18;1.83;;;16.10;63.70;;;;;;4166893;28;20146;-66
2022/02/24 11:55:41;;;;;;;7.82;2.13;;;16.10;63.80;;;;;;4165451;28;20050;-66
2022/02/24 11:58:45;;;;;;;4.30;1.77;;;16.10;63.60;;;;;;4147438;28;20121;-66
2022/02/24 12:01:15;;;;;;;5.75;1.70;;;16.00;63.50;;;;;;4146436;28;20658;-63
2022/02/24 12:03:59;;;;;;;6.50;1.95;;;16.00;63.30;;;;;;4143645;28;20105;-62
2022/02/24 12:06:23;;;;;;;7.28;2.33;;;16.00;63.40;;;;;;4143579;28;20046;-62
2022/02/24 12:09:05;;;;;;;7.63;2.15;;;15.90;63.60;;;;;;4144476;28;20136;-62
2022/02/24 12:11:29;;;;;;;7.55;2.47;;;15.90;63.60;;;;;;4146606;28;20042;-63
2022/02/24 12:13:51;;;;;;;9.38;2.22;;;15.90;63.80;;;;;;4165829;28;20047;-62
2022/02/24 12:16:18;;;;;;;6.45;2.38;;;15.90;63.70;;;;;;4158194;28;20049;-62
2022/02/24 12:18:41;;;;;;;9.30;2.25;;;15.80;63.70;;;;;;4158850;28;20053;-63
2022/02/24 12:21:29;;;;;;;8.00;3.08;;;15.80;63.90;;;;;;4174144;28;20049;-62
2022/02/24 12:23:52;;;;;;;8.20;2.63;;;15.80;63.60;;;;;;4158009;28;20049;-62
2022/02/24 12:26:18;;;;;;;4.13;1.65;;;15.80;63.90;;;;;;4158536;28;20059;-62